Map

Track Data

SID SEASON NUMBER BASIN SUBBASIN NAME ISO_TIME NATURE LAT LON WMO_WIND WMO_PRES WMO_AGENCY TRACK_TYPE DIST2LAND LANDFALL IFLAG USA_AGENCY USA_ATCF_ID USA_LAT USA_LON USA_RECORD USA_STATUS USA_WIND USA_PRES USA_SSHS USA_R34_NE USA_R34_SE USA_R34_SW USA_R34_NW USA_R50_NE USA_R50_SE USA_R50_SW USA_R50_NW USA_R64_NE USA_R64_SE USA_R64_SW USA_R64_NW USA_POCI USA_ROCI USA_RMW USA_EYE TOKYO_LAT TOKYO_LON TOKYO_GRADE TOKYO_WIND TOKYO_PRES TOKYO_R50_DIR TOKYO_R50_LONG TOKYO_R50_SHORT TOKYO_R30_DIR TOKYO_R30_LONG TOKYO_R30_SHORT TOKYO_LAND CMA_LAT CMA_LON CMA_CAT CMA_WIND CMA_PRES HKO_LAT HKO_LON HKO_CAT HKO_WIND HKO_PRES NEWDELHI_LAT NEWDELHI_LON NEWDELHI_GRADE NEWDELHI_WIND NEWDELHI_PRES NEWDELHI_CI NEWDELHI_DP NEWDELHI_POCI REUNION_LAT REUNION_LON REUNION_TYPE REUNION_WIND REUNION_PRES REUNION_TNUM REUNION_CI REUNION_RMW REUNION_R34_NE REUNION_R34_SE REUNION_R34_SW REUNION_R34_NW REUNION_R50_NE REUNION_R50_SE REUNION_R50_SW REUNION_R50_NW REUNION_R64_NE REUNION_R64_SE REUNION_R64_SW REUNION_R64_NW BOM_LAT BOM_LON BOM_TYPE BOM_WIND BOM_PRES BOM_TNUM BOM_CI BOM_RMW BOM_R34_NE BOM_R34_SE BOM_R34_SW BOM_R34_NW BOM_R50_NE BOM_R50_SE BOM_R50_SW BOM_R50_NW BOM_R64_NE BOM_R64_SE BOM_R64_SW BOM_R64_NW BOM_ROCI BOM_POCI BOM_EYE BOM_POS_METHOD BOM_PRES_METHOD NADI_LAT NADI_LON NADI_CAT NADI_WIND NADI_PRES WELLINGTON_LAT WELLINGTON_LON WELLINGTON_WIND WELLINGTON_PRES DS824_LAT DS824_LON DS824_STAGE DS824_WIND DS824_PRES TD9636_LAT TD9636_LON TD9636_STAGE TD9636_WIND TD9636_PRES TD9635_LAT TD9635_LON TD9635_WIND TD9635_PRES TD9635_ROCI NEUMANN_LAT NEUMANN_LON NEUMANN_CLASS NEUMANN_WIND NEUMANN_PRES MLC_LAT MLC_LON MLC_CLASS MLC_WIND MLC_PRES USA_GUST BOM_GUST BOM_GUST_PER REUNION_GUST REUNION_GUST_PER USA_SEAHGT USA_SEARAD_NE USA_SEARAD_SE USA_SEARAD_SW USA_SEARAD_NW STORM_SPEED STORM_DIR
1971153N19062 1971 52 NI AS NOT_NAMED 1971-06-01 15:00:00 NR 19.2000 62.3000 main 397 391 __________O___ -1 19.2000 62.3000 1 8 41
1971153N19062 1971 52 NI AS NOT_NAMED 1971-06-01 18:00:00 TS 19.5023 62.5780 main 404 398 O________OP___ jtwc_io IO021971 19.5000 62.6000 -1 19.5000 62.6000 TC 25 19.5045 62.5560 1 8 42
1971153N19062 1971 52 NI AS NOT_NAMED 1971-06-01 21:00:00 TS 19.8017 62.8670 main 415 409 P________PP___ IO021971 19.7976 62.8948 -1 19.7976 62.8948 TC 25 19.8072 62.8300 1 8 43
1971153N19062 1971 52 NI AS NOT_NAMED 1971-06-02 00:00:00 TS 20.1025 63.1756 main 423 417 O________OP___ jtwc_io IO021971 20.1000 63.2000 -1 20.1000 63.2000 TC 25 20.1062 63.1389 1 9 45
1971153N19062 1971 52 NI AS NOT_NAMED 1971-06-02 03:00:00 TS 20.4049 63.5184 main 432 432 P________PO___ IO021971 20.4074 63.5276 -1 20.4074 63.5276 TC 25 20.4000 63.5000 1 9 49
1971153N19062 1971 52 NI AS NOT_NAMED 1971-06-02 06:00:00 TS 20.6951 63.9070 main 456 456 O________OP___ jtwc_io IO021971 20.7000 63.9000 -1 20.7000 63.9000 TC 25 20.6852 63.9211 1 10 55
1971153N19062 1971 52 NI AS NOT_NAMED 1971-06-02 09:00:00 TS 20.9612 64.3573 main 453 408 P________PP___ IO021971 20.9651 64.3500 -1 20.9651 64.3500 TC 25 20.9533 64.3718 1 10 59
1971153N19062 1971 52 NI AS NOT_NAMED 1971-06-02 12:00:00 TS 21.1982 64.8039 main 408 364 O________OP___ jtwc_io IO021971 21.2000 64.8000 -1 21.2000 64.8000 TC 25 21.1946 64.8117 1 9 60
1971153N19062 1971 52 NI AS NOT_NAMED 1971-06-02 15:00:00 TS 21.4150 65.1917 main 364 326 P________PO___ IO021971 21.4224 65.1875 -1 21.4224 65.1875 TC 25 21.4000 65.2000 1 8 59
1971153N19062 1971 52 NI AS NOT_NAMED 1971-06-02 18:00:00 TS 21.5881 65.4971 main 326 305 O________OP___ jtwc_io IO021971 21.6000 65.5000 -1 21.6000 65.5000 TC 25 21.5644 65.4913 1 6 59
1971153N19062 1971 52 NI AS NOT_NAMED 1971-06-02 21:00:00 TS 21.7080 65.7237 main 305 283 P________PP___ IO021971 21.7149 65.7227 -1 21.7149 65.7227 TC 25 21.6943 65.7258 1 4 61
1971153N19062 1971 52 NI AS NOT_NAMED 1971-06-03 00:00:00 TS 21.8007 65.9075 main 283 262 O________OP___ jtwc_io IO021971 21.8000 65.9000 -1 21.8000 65.9000 TC 25 21.8021 65.9224 1 4 62
1971153N19062 1971 52 NI AS NOT_NAMED 1971-06-03 03:00:00 TS 21.9000 66.1050 main 262 241 P________PO___ IO021971 21.9000 66.1075 -1 21.9000 66.1075 TC 25 21.9000 66.1000 1 4 61
1971153N19062 1971 52 NI AS NOT_NAMED 1971-06-03 06:00:00 TS 22.0037 66.2992 main 241 220 O________OP___ jtwc_io IO021971 22.0000 66.3000 -1 22.0000 66.3000 TC 25 22.0112 66.2976 1 4 58
1971153N19062 1971 52 NI AS NOT_NAMED 1971-06-03 09:00:00 TS 22.1049 66.4651 main 220 206 P________PP___ IO021971 22.1000 66.4575 -1 22.1000 66.4575 TC 25 22.1149 66.4801 1 4 56
1971153N19062 1971 52 NI AS NOT_NAMED 1971-06-03 12:00:00 TS 22.2037 66.6159 main 206 186 O________OP___ jtwc_io IO021971 22.2000 66.6000 -1 22.2000 66.6000 TC 25 22.2112 66.6476 1 3 55
1971153N19062 1971 52 NI AS NOT_NAMED 1971-06-03 15:00:00 TS 22.3050 66.7667 main 186 172 P________PO___ IO021971 22.3075 66.7500 -1 22.3075 66.7500 TC 25 22.3000 66.8000 1 3 53
1971153N19062 1971 52 NI AS NOT_NAMED 1971-06-03 18:00:00 TS 22.3938 66.8929 main 172 168 O________OP___ jtwc_io IO021971 22.4000 66.9000 -1 22.4000 66.9000 TC 25 22.3815 66.8788 1 3 57
1971153N19062 1971 52 NI AS NOT_NAMED 1971-06-03 21:00:00 TS 22.4521 67.0127 main 157 154 P________PP___ IO021971 22.4500 67.0426 -1 22.4500 67.0426 TC 25 22.4563 66.9531 1 3 65
1971153N19062 1971 52 NI AS NOT_NAMED 1971-06-04 00:00:00 TS 22.5093 67.1586 main 150 137 O________OP___ jtwc_io IO021971 22.5000 67.2000 -1 22.5000 67.2000 TC 25 22.5280 67.0757 1 3 63
1971153N19062 1971 52 NI AS NOT_NAMED 1971-06-04 03:00:00 TS 22.5998 67.3317 main 137 116 P________PO___ IO021971 22.5997 67.3475 -1 22.5997 67.3475 TC 25 22.6000 67.3000 1 5 67
1971153N19062 1971 52 NI AS NOT_NAMED 1971-06-04 06:00:00 TS 22.6898 67.6255 main 116 67 O________OP___ jtwc_io IO021971 22.7000 67.6000 -1 22.7000 67.6000 TC 25 22.6744 67.6638 1 7 77
1971153N19062 1971 52 NI AS NOT_NAMED 1971-06-04 09:00:00 TS 22.7576 68.0860 main 67 35 P________PP___ IO021971 22.7631 68.0424 -1 22.7631 68.0424 TC 25 22.7503 68.1442 1 10 83
1971153N19062 1971 52 NI AS NOT_NAMED 1971-06-04 12:00:00 TS 22.8129 68.6512 main 30 0 O________OP___ jtwc_io IO021971 22.8000 68.6000 -1 22.8000 68.6000 TC 25 22.8259 68.7024 1 11 83
1971153N19062 1971 52 NI AS NOT_NAMED 1971-06-04 15:00:00 NR 22.9000 69.3000 main 0 __________O___ IO021971 -1 TC 22.9000 69.3000 1 12 82

About IBTrACS Database

This database is a web-friendly format of International Best Track Archive for Climate Stewardship (IBTrACS), a global best track data archive curated by NOAA dating back to 1842.

Updated: 2021-11-26